HC

 

 

Hoosier Classic - Loft Fly

Station: Loft Fly - T Race

Distance: 1 Miles

Release: 22-Jul-2021 10:45

Weather Release:    Arrival:

Wind at Release:     Wind at Arrival:

Temp at Release: °    Temp at Arrival: °

Lofts: 805

Birds: 4053

Clocked: 4033

Good Luck to Everyone!
Drops Pos Breeder Pigeon Name Color Sex Ent Arrival Speed To Win Elg Pd400LCGoldPlatinum
1 Rivil Yaldo - MI 0084-AU21-YALD BCH H 1 11:38:48.10 32.713 00:00:00 Yes
2 Jennifer Rankin - TX 0108-AU21-APC GRIZ C 1 11:40:32.15 31.691 00:01:44 Yes
3 Ed Skwiat - IN 18010-AU21-JEDD BCH H 1 11:40:40.25 31.614 00:01:52 Yes
4 Crazy Als Lofts - CO 5915-AU21-CRAZ BCH C 1 11:40:41.21 31.605 00:01:53 Yes
5 Kwan Loft - CA 2141-AU21-KWAN BB H 1 11:40:43.17 31.587 00:01:55 Yes
6 Sals Loft & Sons - UT 0012-IF21-SALS Mrs Jalisco BB H 1 11:40:44.19 31.577 00:01:56 Yes
7 Holts Loft - NC 0502-AU21-HOLT BB C 1 11:40:45.17 31.568 00:01:57 Yes
8 Mohamed Al-Fala - SA 54036-ME21-KSA BB C 1 11:40:46.25 31.558 00:01:58 Yes
8 Andy Owen - GA 0101-AU21-AOWE Herschel Walker DCH C 1 11:40:46.26 31.558 00:01:58 Yes
10 Lia Brulloths - TX 8324-AU21-CCBI Show Gun BCH C 1 11:40:47.21 31.549 00:01:59 Yes
11 Jennifer Westfall - MO 0053-AU21-WMW BB H 1 11:40:48.02 31.541 00:02:00 Yes
12 Ron Talbot /Jimmy Fernandez - LA 4290-AU21-AA BB H 1 11:40:48.95 31.532 00:02:01 Yes
13 Liu s Loft - MO 0511-AU21-BAIZ BCH H 1 11:40:49.36 31.528 00:02:01 Yes
14 Adel Al-Hadiyah - KW 789941-ME21-KW BB C 1 11:40:50.01 31.522 00:02:02 Yes
15 Wolf & Kornelius - DV 3902-AU21-VK BB C 1 11:40:50.40 31.519 00:02:02 Yes
16 Paul Yahiku - OR 21012-AU21-YAHI BBS x Lea BSP H 1 11:40:50.42 31.518 00:02:02 Yes
17 Jamal Mutlag - KW 773501-ME21-KW BCH H 1 11:40:50.57 31.517 00:02:02 Yes
17 Yan Loft - CA 11056-AU21-JEDD Arrow BB H 1 11:40:50.59 31.517 00:02:02 Yes
19 Kristen Solache - TX 1705-AU21-VK Aurora’s Way BCH H 1 11:40:51.22 31.511 00:02:03 Yes
20 Gayle & Ron Ganus - IN 0741-AU21-GFL Cadilac BB H 1 11:40:51.93 31.504 00:02:04 Yes
21 Cabillafamily - FL 1104-AU21-HRPC DCSP H 1 11:40:52.55 31.498 00:02:05 Yes
21 Westfall Loft - MO 0050-AU21-WMW BB C 1 11:40:52.56 31.498 00:02:05 Yes
21 Hi-Cal Connection - CA 0757-AU21-HICA BB H 1 11:40:52.58 31.498 00:02:05 Yes
21 Kelley & Buckner - TX 0112-AU21-DENT BB C 1 11:40:52.59 31.498 00:02:05 Yes
25 Lottery Loft - IL 2860-AU21-CHIC PNWF C 1 11:40:52.71 31.497 00:02:05 Yes
26 Holts Loft - NC 0522-AU21-HOLT BB C 2 11:40:53.23 31.492 00:02:05 Yes
26 For Sale - IN 1232-AU21-FLYD BB C 1 11:40:53.25 31.492 00:02:05 Yes
26 Serrano Brothers Loft - FL 92104-AU21-ARPU Relampago BCH C 1 11:40:53.27 31.492 00:02:05 Yes
29 Flying D #2 - TX 1249-AU21-FLYD La B 1329 / Arpu 45518 DCH H 1 11:40:53.95 31.485 00:02:06 Yes
29 Walters Loft - NJ 69938-AU21-ARPU BB C 1 11:40:53.96 31.485 00:02:06 Yes
29 Salman Nashmi - KS 803317-ME21-KW BB H 1 11:40:53.98 31.485 00:02:06 Yes
29 8ge - PA 2118-IF21-ERIE BB H 1 11:40:53.99 31.485 00:02:06 Yes
33 Not Eligible - TX Disqualified Maris 700 x Jelle 561 1 11:40:54.80 31.477 00:02:07 No
33 Nameer Al-Qaisi - IQ 1070110-ME21-KW RED 1 1 11:40:54.81 31.477 00:02:07 Yes
33 Wolf & Kornelius - DV 3905-AU21-VK BB H 2 11:40:54.83 31.477 00:02:07 Yes
33 Vasquez Lofts - CA 0008-AU21-VL BB C 1 11:40:54.84 31.477 00:02:07 Yes
37 Ken Easley & Son Racing - NM 3357-AU21-ARPU Andromeda BB H 1 11:40:55.11 31.474 00:02:07 Yes
38 Gallego-De La Fe Loft - FL 0129-AU21-GHC BB C 1 11:40:55.74 31.468 00:02:08 Yes
38 Debbie Ganus - IN 0729-AU21-GFL SYMPLY THE BEST BPD H 1 11:40:55.74 31.468 00:02:08 Yes
38 Jax Zhao - FL 30144-AU21-AA BWF H 1 11:40:55.75 31.468 00:02:08 Yes
41 Fassio Loft - UT 1157-AU21-SLI Walking Marseille BCSP C 1 11:40:56.24 31.464 00:02:08 Yes
41 Zapopan- Palomar- Ayon Loft - TX 0039-AU21-AFLC Hawaii-2 BB C 1 11:40:56.24 31.464 00:02:08 Yes
43 Abdulhakeam Al-Mishkhas - SA 778647-ME21-KW BBWF C 1 11:40:56.44 31.462 00:02:08 Yes
43 Wessel Family Lofts - CA 5211-AU21-ARC BCH H 1 11:40:56.46 31.462 00:02:08 Yes
45 Flying D #2 - TX 1231-AU21-FLYD Flyd 717 / Hl 9550 BB H 2 11:40:57.05 31.456 00:02:09 Yes
45 Jim Micenec - OH 1823-AU21-DEF Mr. Muscles BCH C 1 11:40:57.07 31.456 00:02:09 Yes
45 Redmon Loft - FL 4601-AU21-LCF BB H 1 11:40:57.08 31.456 00:02:09 Yes
48 Pine Island Pigeon Loft - MA 0111-AU21-VK The Chairman PD H 1 11:40:57.56 31.451 00:02:10 Yes
49 Joy Fassio - UT 1092-AU21-SLI BWF H 1 11:40:57.70 31.450 00:02:10 Yes
50 Oscar Castaneda - CA 4180-AU21-OCC BB C 1 11:40:57.84 31.449 00:02:10 Yes
50 CAN-AM LOFT - MI 1250-AU21-FLYD DCH H 1 11:40:57.85 31.449 00:02:10 Yes
52 America's Dream Loft - IL 1210-AU21-RRV BPD H 1 11:40:57.88 31.448 00:02:10 Yes
52 Wartick Family Loft - KS 9548-AU21-ARPU Reagan BB H 1 11:40:57.90 31.448 00:02:10 Yes
52 8ge - PA 2156-IF21-ERIE BB H 2 11:40:57.91 31.448 00:02:10 Yes
55 Seguna Loft - CAN 5002-AU21-ARPU Lightning CH H 1 11:40:58.18 31.446 00:02:10 Yes
55 Naji Al-Garauta - KW 731489-ME21-KW BCH C 1 11:40:58.19 31.446 00:02:10 Yes
57 Do Drop In Loft - NC 0024-IF21-TRC Simplicity BB H 1 11:40:58.20 31.445 00:02:10 Yes
57 Furlano & Rotiroti - ON 21003-CU21-LAKE BB C 1 11:40:58.20 31.445 00:02:10 Yes
59 Neven Batinic - CA 7502-AU21-FOYS DUBROVNIK PRINCESS BB H 1 11:40:58.87 31.439 00:02:11 Yes
59 Nel Kalinisan - CA 17926-AU21-JEDD Barok BWF C 1 11:40:58.87 31.439 00:02:11 Yes
59 Just4fun - IL 0099-AU21-DEIS Half Million BB C 1 11:40:58.89 31.439 00:02:11 Yes
59 Al-Khaleej Loft - KW 19046-ME21-KW BB C 1 11:40:58.90 31.439 00:02:11 Yes
63 Winners Loft - NM 1861-AU21-ARPU Puccini's Opera BB C 1 11:40:59.50 31.433 00:02:11 Yes
64 Oscar Castaneda - CA 4177-AU21-OCC BB H 2 11:41:00.65 31.422 00:02:13 Yes
65 Michael Groe - CA 2106-AU21-GROE BB H 1 11:41:01.34 31.416 00:02:13 Yes
66 Kelly - FL 0026-AU21-KELL BB H 1 11:41:01.53 31.414 00:02:13 Yes
66 HP-RC-YH LOFT - FL 1554-AU21-SUNS HPRCYH 54 CHOC H 1 11:41:01.54 31.414 00:02:13 Yes
66 Nathern Jutson - TX 3054-AU21-VK From A Jack To A King BB C 1 11:41:01.57 31.414 00:02:13 Yes
66 Yusef Al-Muteri - KW 756606-ME21-KW BCH H 1 11:41:01.58 31.414 00:02:13 Yes
70 Lillie & Cecil - CA 9943-AU21-JEDD LILLIE 1351 x 80243 DCWF H 1 11:41:01.86 31.411 00:02:14 Yes
71 Do Drop In Loft - NC 92821-AU21-ARPU Nitro BB H 2 11:41:02.67 31.404 00:02:15 Yes
71 Wolf & Kornelius - DV 18786-CH21-CH BB C 3 11:41:02.68 31.404 00:02:15 Yes
73 Five Oaks Loft - VA 1453-IF21-FOYS BB C 1 11:41:02.71 31.403 00:02:15 Yes
73 Hylek Race Team - IN 1662-AU21-ARPU Miss 6 BB H 1 11:41:02.72 31.403 00:02:15 Yes
75 Rodriguez Loft - TX 21530-AU21-WIN 17807-MYSTIQUE BWF C 1 11:41:03.26 31.398 00:02:15 Yes
76 For Sale - IN 21052-CU21-LAKE BB C 2 11:41:03.61 31.395 00:02:16 Yes
76 Ken Easley & Son Racing - NM 3355-AU21-ARPU Enterprise BB H 2 11:41:03.62 31.395 00:02:16 Yes
78 Poorhouse Road Loft - VA 3702-AU21-ARPU BB H 1 11:41:04.20 31.389 00:02:16 Yes
78 For Sale - IN 1221-AU21-FLYD BSP C 3 11:41:04.21 31.389 00:02:16 Yes
78 Kwan Loft - CA 2111-AU21-KWAN BCH H 2 11:41:04.24 31.389 00:02:16 Yes
78 Not Eligible - TX Disqualified 2 Champion World Ace 2010 2 11:41:04.25 31.389 00:02:16 No
78 Coletta & Sorrentino - CA 0208-AU21-COLE My Way BB C 1 11:41:04.26 31.389 00:02:16 Yes
83 CariniCodd - OR 2118-AU21-CARI BB C 1 11:41:04.49 31.387 00:02:16 Yes
84 DiMaggio Family Loft - NY 0006-IF21-NW Louis BB H 1 11:41:04.94 31.382 00:02:17 Yes
84 For Sale - IN 1727-AU21-HARM RCH H 5 11:41:04.96 31.382 00:02:17 Yes
84 For Sale - IN 21085-CU21-LAKE WFSP H 4 11:41:04.97 31.382 00:02:17 Yes
87 Zain Center - KW 1048410-ME21-KW BB C 1 11:41:05.68 31.376 00:02:18 Yes
88 Seguna Loft - CAN 5012-AU21-ARPU The Woo BB H 2 11:41:05.69 31.375 00:02:18 Yes
89 Red Dragon Loft - FL 54000-AU21-ARPU see you later BCH C 1 11:41:06.26 31.370 00:02:18 Yes
90 Villarama Family Pigeons - CA 88402-AU21-ARPU BB C 1 11:41:07.14 31.362 00:02:19 Yes
90 Kozuszko - IL 4856-AU21-CHIC BCH C 1 11:41:07.15 31.362 00:02:19 Yes
90 Letellier & Son Loft - ME 2136-AU21-LS Heidi BB H 1 11:41:07.18 31.362 00:02:19 Yes
93 Rivas Loft - NV 28329-AU21-JEDD RED C 1 11:41:07.19 31.361 00:02:19 Yes
94 The Winners Circle Syn - CA 2127-AU21-GROE Super Kleinen BB H 1 11:41:07.40 31.360 00:02:19 Yes
95 De La Torre Loft - CA 32837-AU21-JEDD BB H 1 11:41:07.41 31.359 00:02:19 Yes
95 Crislip Racing Cartel - OH 0008-AU21-CRC Lightning BB H 1 11:41:07.44 31.359 00:02:19 Yes
97 Floridian Loft - FL 15208-AU21-AA Den 08 BB C 1 11:41:07.67 31.357 00:02:20 Yes
98 Mesopotamia Loft 2 - CA 0121-AU21-MESO BCH H 1 11:41:07.82 31.356 00:02:20 Yes
98 Lebresco-Rubino - PA 3220-IF21-PHX BB H 1 11:41:07.83 31.356 00:02:20 Yes
100 Red Dragon Loft - FL 53902-AU21-ARPU Marxismo BB C 2 11:41:08.03 31.354 00:02:20 Yes

There are 4033 bird records

Note: These Race Results are unofficial and subject to change until verified by the Race Committee and declared final.